createdAt,value
2022-08-02T00:00:37.300Z,94501.78
2022-08-02T00:02:39.129Z,94503.63
2022-08-02T00:04:40.795Z,94493.31
2022-08-02T00:06:42.564Z,94493.09
2022-08-02T00:08:44.291Z,94496.09
2022-08-02T00:10:46.028Z,94495.28
2022-08-02T00:12:47.741Z,94496.94
2022-08-02T00:14:49.446Z,94497.50
2022-08-02T00:16:51.117Z,94502.38
2022-08-02T00:18:53.098Z,94494.59
2022-08-02T00:20:54.740Z,94491.59
2022-08-02T00:22:56.413Z,94487.78
2022-08-02T00:24:58.160Z,94491.69
2022-08-02T00:26:59.932Z,94497.38
2022-08-02T00:29:01.536Z,94499.47
2022-08-02T00:31:03.282Z,94490.06
2022-08-02T00:33:08.579Z,94491.31
2022-08-02T00:35:10.251Z,94491.19
2022-08-02T00:37:11.881Z,94488.63
2022-08-02T00:39:34.167Z,94486.56
2022-08-02T00:41:45.655Z,94486.22
2022-08-02T00:43:48.241Z,94484.38
2022-08-02T00:46:02.687Z,94487.25
2022-08-02T00:48:06.857Z,94484.81
2022-08-02T00:50:08.858Z,94473.72
2022-08-02T00:52:10.689Z,94482.97
2022-08-02T00:54:13.026Z,94478.56
2022-08-02T00:56:14.708Z,94484.94
2022-08-02T00:58:16.747Z,94480.28
2022-08-02T01:00:18.918Z,94480.28
2022-08-02T01:02:20.948Z,94473.81
2022-08-02T01:04:26.840Z,94477.50
2022-08-02T01:06:33.630Z,94474.28
2022-08-02T01:08:35.264Z,94470.34
2022-08-02T01:10:36.963Z,94472.91
2022-08-02T01:12:39.332Z,94471.03
2022-08-02T01:14:42.432Z,94474.72
2022-08-02T01:16:53.359Z,94477.19
2022-08-02T01:19:00.236Z,94476.81
2022-08-02T01:21:10.907Z,94467.13
2022-08-02T01:23:40.164Z,94469.53
2022-08-02T01:26:01.655Z,94468.72
2022-08-02T01:28:17.984Z,94470.56
2022-08-02T01:30:19.844Z,94467.38
2022-08-02T01:32:26.165Z,94470.38
2022-08-02T01:34:36.466Z,94471.88
2022-08-02T01:36:44.831Z,94472.69
2022-08-02T01:38:49.471Z,94474.84
2022-08-02T01:40:52.287Z,94480.31
2022-08-02T01:42:55.067Z,94480.69
2022-08-02T01:44:57.327Z,94478.09
2022-08-02T01:47:04.140Z,94480.34
2022-08-02T01:49:08.560Z,94482.81
2022-08-02T01:51:15.200Z,94471.34
2022-08-02T01:53:19.152Z,94483.75
2022-08-02T01:55:35.255Z,94482.19
2022-08-02T01:57:57.519Z,94476.78
2022-08-02T02:00:01.639Z,94477.25
2022-08-02T02:02:04.039Z,94483.78
2022-08-02T02:04:08.407Z,94485.50
2022-08-02T02:06:10.806Z,94493.41
2022-08-02T02:08:12.789Z,94489.91
2022-08-02T02:10:16.243Z,94492.88
2022-08-02T02:12:18.654Z,94497.94
2022-08-02T02:14:21.276Z,94492.63
2022-08-02T02:16:23.045Z,94494.84
2022-08-02T02:18:26.090Z,94494.84
2022-08-02T02:20:27.773Z,94487.31
2022-08-02T02:22:29.643Z,94493.06
2022-08-02T02:24:31.668Z,94489.22
2022-08-02T02:26:35.002Z,94491.59
2022-08-02T02:28:38.571Z,94489.34
2022-08-02T02:30:43.212Z,94488.09
2022-08-02T02:32:46.115Z,94490.91
2022-08-02T02:34:50.183Z,94493.66
2022-08-02T02:36:52.273Z,94493.38
2022-08-02T02:38:56.936Z,94496.56
2022-08-02T02:41:03.621Z,94486.25
2022-08-02T02:43:06.632Z,94486.63
2022-08-02T02:45:10.031Z,94493.94
2022-08-02T02:47:12.023Z,94487.22
2022-08-02T02:49:15.302Z,94487.81
2022-08-02T02:51:17.105Z,94485.63
2022-08-02T02:53:19.278Z,94482.13
2022-08-02T02:55:22.110Z,94482.78
2022-08-02T02:57:24.364Z,94484.44
2022-08-02T02:59:26.510Z,94484.19
2022-08-02T03:01:55.523Z,94485.84
2022-08-02T03:03:50.060Z,94496.00
2022-08-02T03:05:51.812Z,94487.22
2022-08-02T03:07:54.176Z,94487.81
2022-08-02T03:09:55.894Z,94490.09
2022-08-02T03:11:57.793Z,94485.25
2022-08-02T03:14:00.968Z,94485.25
2022-08-02T03:16:03.438Z,94486.63
2022-08-02T03:18:07.872Z,94487.75
2022-08-02T03:20:14.780Z,94491.31
2022-08-02T03:22:16.447Z,94490.47
2022-08-02T03:24:28.076Z,94491.81
2022-08-02T03:26:30.108Z,94489.03
2022-08-02T03:28:31.914Z,94488.84
2022-08-02T03:30:33.638Z,94496.22
2022-08-02T03:32:36.235Z,94489.09
2022-08-02T03:34:37.835Z,94488.03
2022-08-02T03:36:40.656Z,94491.59
2022-08-02T03:38:43.070Z,94487.06
2022-08-02T03:40:45.555Z,94496.91
2022-08-02T03:42:48.210Z,94496.19
2022-08-02T03:44:50.196Z,94495.75
2022-08-02T03:46:52.522Z,94499.78
2022-08-02T03:48:55.037Z,94498.81
2022-08-02T03:50:57.112Z,94499.13
2022-08-02T03:52:59.883Z,94505.19
2022-08-02T03:55:01.598Z,94503.13
2022-08-02T03:57:07.460Z,94507.69
2022-08-02T03:59:13.830Z,94507.50
2022-08-02T04:01:15.601Z,94510.84
2022-08-02T04:03:19.937Z,94522.38
2022-08-02T04:05:21.941Z,94522.31
2022-08-02T04:08:34.489Z,94518.50
2022-08-02T04:09:45.222Z,94532.72
2022-08-02T04:11:46.856Z,94535.88
2022-08-02T04:13:48.586Z,94540.44
2022-08-02T04:15:54.773Z,94543.56
2022-08-02T04:17:57.378Z,94541.19
2022-08-02T04:20:04.381Z,94537.72
2022-08-02T04:22:08.264Z,94542.38
2022-08-02T04:24:11.858Z,94547.22
2022-08-02T04:26:26.825Z,94546.66
2022-08-02T04:28:30.908Z,94540.00
2022-08-02T04:30:33.039Z,94534.13
2022-08-02T04:32:35.584Z,94536.22
2022-08-02T04:34:37.262Z,94535.25
2022-08-02T04:36:39.030Z,94535.88
2022-08-02T04:38:42.106Z,94537.31
2022-08-02T04:40:54.457Z,94536.28
2022-08-02T04:42:56.153Z,94540.03
2022-08-02T04:44:58.542Z,94536.91
2022-08-02T04:47:06.747Z,94533.38
2022-08-02T04:49:09.063Z,94531.00
2022-08-02T04:51:10.787Z,94535.59
2022-08-02T04:53:12.709Z,94532.03
2022-08-02T04:55:14.362Z,94535.81
2022-08-02T04:57:34.555Z,94540.53
2022-08-02T04:59:36.196Z,94536.31
2022-08-02T05:01:39.453Z,94538.69
2022-08-02T05:03:41.146Z,94540.13
2022-08-02T05:05:42.935Z,94543.06
2022-08-02T05:07:44.855Z,94538.50
2022-08-02T05:09:46.540Z,94541.97
2022-08-02T05:11:53.362Z,94543.03
2022-08-02T05:13:57.906Z,94542.03
2022-08-02T05:16:03.186Z,94544.16
2022-08-02T05:18:05.049Z,94548.31
2022-08-02T05:20:07.088Z,94548.41
2022-08-02T05:22:09.209Z,94546.94
2022-08-02T05:24:11.079Z,94543.72
2022-08-02T05:26:12.677Z,94553.00
2022-08-02T05:28:14.367Z,94550.59
2022-08-02T05:30:16.225Z,94559.03
2022-08-02T05:32:18.680Z,94553.94
2022-08-02T05:34:20.380Z,94560.78
2022-08-02T05:36:22.125Z,94558.56
2022-08-02T05:38:26.025Z,94557.06
2022-08-02T05:40:28.177Z,94556.94
2022-08-02T05:42:32.923Z,94563.31
2022-08-02T05:44:34.663Z,94564.47
2022-08-02T05:46:36.296Z,94563.31
2022-08-02T05:48:38.821Z,94564.97
2022-08-02T05:50:45.120Z,94563.91
2022-08-02T05:52:50.890Z,94561.47
2022-08-02T05:55:07.184Z,94570.41
2022-08-02T05:57:17.966Z,94563.31
2022-08-02T05:59:37.867Z,94559.75
2022-08-02T06:01:41.263Z,94563.00
2022-08-02T06:03:51.593Z,94572.47
2022-08-02T06:06:00.780Z,94578.72
2022-08-02T06:08:04.464Z,94574.34
2022-08-02T06:10:10.412Z,94580.13
2022-08-02T06:12:13.645Z,94578.16
2022-08-02T06:14:15.612Z,94583.25
2022-08-02T06:16:18.090Z,94584.22
2022-08-02T06:18:34.454Z,94588.72
2022-08-02T06:20:37.146Z,94590.19
2022-08-02T06:22:44.855Z,94598.19
2022-08-02T06:24:48.037Z,94589.16
2022-08-02T06:26:55.075Z,94593.06
2022-08-02T06:28:58.470Z,94595.84
2022-08-02T06:31:00.284Z,94604.69
2022-08-02T06:33:02.235Z,94586.56
2022-08-02T06:35:05.287Z,94611.44
2022-08-02T06:37:18.986Z,94608.28
2022-08-02T06:39:28.190Z,94609.13
2022-08-02T06:41:32.412Z,94610.25
2022-08-02T06:43:45.864Z,94614.50
2022-08-02T06:45:47.584Z,94607.88
2022-08-02T06:47:49.330Z,94609.38
2022-08-02T06:49:54.235Z,94607.13
2022-08-02T06:51:56.588Z,94607.00
2022-08-02T06:53:58.173Z,94603.22
2022-08-02T06:55:59.874Z,94608.56
2022-08-02T06:58:01.555Z,94605.31
2022-08-02T07:00:08.731Z,94603.69
2022-08-02T07:02:12.167Z,94604.41
2022-08-02T07:04:15.604Z,94603.69
2022-08-02T07:06:19.219Z,94605.31
2022-08-02T07:08:21.268Z,94594.00
2022-08-02T07:10:23.097Z,94601.53
2022-08-02T07:12:25.006Z,94600.28
2022-08-02T07:14:26.888Z,94601.56
2022-08-02T07:16:28.608Z,94599.94
2022-08-02T07:18:30.423Z,94597.75
2022-08-02T07:20:32.585Z,94599.69
2022-08-02T07:22:34.372Z,94596.47
2022-08-02T07:24:36.268Z,94601.59
2022-08-02T07:26:55.242Z,94612.72
2022-08-02T07:28:59.498Z,94598.56
2022-08-02T07:31:01.314Z,94590.56
2022-08-02T07:33:03.776Z,94590.41
2022-08-02T07:35:07.451Z,94595.53
2022-08-02T07:37:18.664Z,94596.81
2022-08-02T07:39:31.466Z,94584.94
2022-08-02T07:41:35.365Z,94589.56
2022-08-02T07:43:37.189Z,94592.31
2022-08-02T07:45:55.596Z,94598.38
2022-08-02T07:47:58.988Z,94591.09
2022-08-02T07:50:00.636Z,94591.91
2022-08-02T07:52:02.348Z,94582.59
2022-08-02T07:54:04.879Z,94579.72
2022-08-02T07:56:06.708Z,94576.56
2022-08-02T07:58:12.714Z,94588.59
2022-08-02T08:00:17.313Z,94583.59
2022-08-02T08:02:19.313Z,94580.75
2022-08-02T08:04:20.957Z,94579.50
2022-08-02T08:06:28.557Z,94576.06
2022-08-02T08:08:30.874Z,94581.22
2022-08-02T08:10:32.556Z,94574.50
2022-08-02T08:12:34.398Z,94575.53
2022-08-02T08:14:36.508Z,94590.44
2022-08-02T08:16:38.181Z,94585.88
2022-08-02T08:18:39.858Z,94580.94
2022-08-02T08:20:41.444Z,94582.53
2022-08-02T08:22:43.386Z,94579.13
2022-08-02T08:24:45.495Z,94576.25
2022-08-02T08:26:47.148Z,94574.63
2022-08-02T08:28:49.083Z,94570.25
2022-08-02T08:30:50.750Z,94568.63
2022-08-02T08:32:52.476Z,94575.41
2022-08-02T08:34:54.153Z,94575.94
2022-08-02T08:36:55.767Z,94576.22
2022-08-02T08:38:57.472Z,94573.06
2022-08-02T08:40:59.222Z,94576.91
2022-08-02T08:43:00.899Z,94580.59
2022-08-02T08:45:02.714Z,94574.38
2022-08-02T08:47:05.798Z,94582.34
2022-08-02T08:49:26.016Z,94571.09
2022-08-02T08:51:31.721Z,94572.22
2022-08-02T08:53:39.768Z,94570.06
2022-08-02T08:55:43.492Z,94562.78
2022-08-02T08:57:45.586Z,94564.16
2022-08-02T08:59:47.764Z,94572.72
2022-08-02T09:01:51.392Z,94573.72
2022-08-02T09:03:53.288Z,94574.56
2022-08-02T09:05:58.145Z,94579.81
2022-08-02T09:07:59.768Z,94574.78
2022-08-02T09:10:01.484Z,94580.75
2022-08-02T09:12:16.830Z,94575.44
2022-08-02T09:14:29.327Z,94575.19
2022-08-02T09:16:32.962Z,94567.34
2022-08-02T09:18:43.968Z,94564.66
2022-08-02T09:20:54.184Z,94564.56
2022-08-02T09:23:12.235Z,94567.72
2022-08-02T09:25:15.883Z,94565.75
2022-08-02T09:27:19.984Z,94569.25
2022-08-02T09:29:23.722Z,94564.66
2022-08-02T09:31:25.973Z,94565.16
2022-08-02T09:33:28.475Z,94553.72
2022-08-02T09:36:06.433Z,94557.00
2022-08-02T09:38:20.696Z,94557.81
2022-08-02T09:40:35.763Z,94554.22
2022-08-02T09:42:37.582Z,94558.06
2022-08-02T09:44:39.312Z,94559.44
2022-08-02T09:46:45.421Z,94551.66
2022-08-02T09:48:54.102Z,94560.72
2022-08-02T09:50:56.647Z,94551.56
2022-08-02T09:52:58.912Z,94545.41
2022-08-02T09:55:06.883Z,94543.03
2022-08-02T09:57:08.751Z,94543.13
2022-08-02T09:59:11.269Z,94551.56
2022-08-02T10:01:13.163Z,94545.41
2022-08-02T10:03:21.964Z,94543.59
2022-08-02T10:05:30.488Z,94538.72
2022-08-02T10:07:37.377Z,94550.94
2022-08-02T10:09:46.426Z,94541.19
2022-08-02T10:11:49.646Z,94542.31
2022-08-02T10:13:51.891Z,94541.34
2022-08-02T10:15:53.606Z,94541.44
2022-08-02T10:17:55.358Z,94547.34
2022-08-02T10:20:02.600Z,94536.44
2022-08-02T10:22:07.812Z,94539.50
2022-08-02T10:24:11.936Z,94541.94
2022-08-02T10:26:19.335Z,94541.44
2022-08-02T10:28:27.401Z,94533.91
2022-08-02T10:30:29.641Z,94530.41
2022-08-02T10:32:36.995Z,94535.56
2022-08-02T10:34:44.399Z,94527.72
2022-08-02T10:36:53.267Z,94527.19
2022-08-02T10:38:58.671Z,94521.81
2022-08-02T10:41:00.466Z,94532.81
2022-08-02T10:43:02.142Z,94531.66
2022-08-02T10:45:12.031Z,94526.72
2022-08-02T10:47:26.463Z,94531.34
2022-08-02T10:49:44.182Z,94533.97
2022-08-02T10:51:59.562Z,94527.66
2022-08-02T10:54:10.463Z,94525.63
2022-08-02T10:56:12.110Z,94514.88
2022-08-02T10:58:20.485Z,94521.03
2022-08-02T11:00:28.477Z,94516.97
2022-08-02T11:02:42.032Z,94511.72
2022-08-02T11:04:43.640Z,94513.63
2022-08-02T11:07:07.963Z,94508.78
2022-08-02T11:09:34.179Z,94510.94
2022-08-02T11:12:03.480Z,94516.13
2022-08-02T11:14:09.347Z,94511.28
2022-08-02T11:16:11.966Z,94511.00
2022-08-02T11:18:13.873Z,94513.41
2022-08-02T11:20:17.000Z,94517.53
2022-08-02T11:22:23.839Z,94514.06
2022-08-02T11:24:30.075Z,94516.75
2022-08-02T11:26:31.692Z,94515.94
2022-08-02T11:28:33.459Z,94520.53
2022-08-02T11:30:35.237Z,94514.84
2022-08-02T11:32:36.913Z,94516.16
2022-08-02T11:34:39.429Z,94523.16
2022-08-02T11:36:48.692Z,94522.63
2022-08-02T11:38:50.337Z,94512.19
2022-08-02T11:40:57.441Z,94523.69
2022-08-02T11:42:59.319Z,94515.31
2022-08-02T11:45:01.580Z,94526.63
2022-08-02T11:47:03.575Z,94523.09
2022-08-02T11:49:16.852Z,94520.19
2022-08-02T11:51:18.943Z,94515.13
2022-08-02T11:53:20.592Z,94516.72
2022-08-02T11:55:30.201Z,94514.88
2022-08-02T11:58:03.228Z,94514.56
2022-08-02T11:59:55.771Z,94504.06
2022-08-02T12:01:57.434Z,94508.84
2022-08-02T12:04:01.018Z,94507.13
2022-08-02T12:06:06.398Z,94495.59
2022-08-02T12:08:08.785Z,94499.31
2022-08-02T12:10:22.185Z,94498.75
2022-08-02T12:12:23.864Z,94499.44
2022-08-02T12:14:27.785Z,94499.63
2022-08-02T12:16:58.324Z,94507.44
2022-08-02T12:19:18.466Z,94505.94
2022-08-02T12:21:24.546Z,94499.16
2022-08-02T12:23:26.564Z,94507.97
2022-08-02T12:25:33.590Z,94506.88
2022-08-02T12:27:38.252Z,94498.78
2022-08-02T12:29:57.961Z,94503.69
2022-08-02T12:32:01.176Z,94510.94
2022-08-02T12:34:15.050Z,94504.28
2022-08-02T12:36:18.472Z,94507.59
2022-08-02T12:38:20.471Z,94506.47
2022-08-02T12:40:25.430Z,94504.03
2022-08-02T12:42:27.455Z,94508.94
2022-08-02T12:44:29.285Z,94509.72
2022-08-02T12:46:32.018Z,94502.75
2022-08-02T12:49:02.348Z,94506.50
2022-08-02T12:51:50.772Z,94493.75
2022-08-02T12:53:58.812Z,94492.88
2022-08-02T12:56:03.855Z,94502.97
2022-08-02T12:58:05.836Z,94491.56
2022-08-02T13:00:09.796Z,94490.69
2022-08-02T13:02:12.888Z,94487.97
2022-08-02T13:04:16.575Z,94486.13
2022-08-02T13:08:41.437Z,94482.19
2022-08-02T13:10:43.606Z,94490.88
2022-08-02T13:12:45.907Z,94496.81
2022-08-02T13:14:47.664Z,94489.56
2022-08-02T13:16:49.604Z,94494.97
2022-08-02T13:18:51.310Z,94488.78
2022-08-02T13:20:54.232Z,94498.69
2022-08-02T13:22:56.158Z,94491.44
2022-08-02T13:25:06.257Z,94490.88
2022-08-02T13:27:09.198Z,94483.22
2022-08-02T13:29:12.537Z,94481.00
2022-08-02T13:31:35.522Z,94496.16
2022-08-02T13:33:35.856Z,94485.72
2022-08-02T13:35:37.503Z,94483.72
2022-08-02T13:37:41.892Z,94483.84
2022-08-02T13:39:51.477Z,94485.84
2022-08-02T13:42:06.036Z,94482.50
2022-08-02T13:44:10.778Z,94490.44
2022-08-02T13:46:13.168Z,94498.75
2022-08-02T13:48:16.676Z,94487.06
2022-08-02T13:50:20.051Z,94493.34
2022-08-02T13:52:21.766Z,94487.19
2022-08-02T13:54:23.436Z,94488.72
2022-08-02T13:56:35.184Z,94495.56
2022-08-02T13:58:37.751Z,94492.09
2022-08-02T14:00:39.513Z,94488.03
2022-08-02T14:02:41.201Z,94494.19
2022-08-02T14:04:43.184Z,94493.03
2022-08-02T14:06:44.863Z,94484.91
2022-08-02T14:08:46.537Z,94485.19
2022-08-02T14:10:48.980Z,94493.00
2022-08-02T14:12:56.491Z,94487.38
2022-08-02T14:14:58.527Z,94487.38
2022-08-02T14:17:00.152Z,94483.59
2022-08-02T14:19:05.386Z,94487.34
2022-08-02T14:21:12.380Z,94483.53
2022-08-02T14:23:14.536Z,94491.00
2022-08-02T14:25:16.230Z,94489.28
2022-08-02T14:27:17.935Z,94487.22
2022-08-02T14:29:19.626Z,94494.28
2022-08-02T14:31:21.304Z,94491.44
2022-08-02T14:33:23.435Z,94491.97
2022-08-02T14:35:25.185Z,94492.66
2022-08-02T14:37:26.798Z,94498.94
2022-08-02T14:39:28.489Z,94491.19
2022-08-02T14:41:58.887Z,94489.63
2022-08-02T14:44:06.091Z,94497.75
2022-08-02T14:46:07.930Z,94492.50
2022-08-02T14:48:12.533Z,94484.88
2022-08-02T14:50:14.615Z,94485.84
2022-08-02T14:52:17.000Z,94485.63
2022-08-02T14:54:18.711Z,94490.66
2022-08-02T14:56:20.836Z,94484.44
2022-08-02T14:58:22.548Z,94481.47
2022-08-02T15:00:24.192Z,94485.19
2022-08-02T15:02:26.060Z,94480.16
2022-08-02T15:04:28.059Z,94477.16
2022-08-02T15:06:35.704Z,94485.19
2022-08-02T15:08:37.670Z,94473.97
2022-08-02T15:10:40.256Z,94483.63
2022-08-02T15:12:41.918Z,94482.09
2022-08-02T15:14:43.911Z,94481.59
2022-08-02T15:16:56.028Z,94477.38
2022-08-02T15:18:59.179Z,94484.41
2022-08-02T15:21:00.938Z,94486.31
2022-08-02T15:23:09.722Z,94488.78
2022-08-02T15:25:14.460Z,94489.91
2022-08-02T15:27:17.350Z,94493.22
2022-08-02T15:29:20.237Z,94492.22
2022-08-02T15:31:30.761Z,94493.53
2022-08-02T15:33:35.160Z,94494.72
2022-08-02T15:35:36.848Z,94497.56
2022-08-02T15:37:41.446Z,94489.75
2022-08-02T15:39:43.953Z,94502.13
2022-08-02T15:41:45.635Z,94496.44
2022-08-02T15:44:00.276Z,94502.88
2022-08-02T15:46:03.220Z,94496.63
2022-08-02T15:48:05.207Z,94503.38
2022-08-02T15:50:07.099Z,94500.47
2022-08-02T15:52:12.848Z,94501.78
2022-08-02T15:54:14.663Z,94499.66
2022-08-02T15:56:16.286Z,94504.94
2022-08-02T15:58:23.947Z,94501.44
2022-08-02T16:00:25.628Z,94504.75
2022-08-02T16:02:27.451Z,94501.00
2022-08-02T16:04:29.251Z,94506.09
2022-08-02T16:06:30.865Z,94507.25
2022-08-02T16:08:32.530Z,94505.09
2022-08-02T16:10:34.579Z,94509.97
2022-08-02T16:12:36.226Z,94508.66
2022-08-02T16:14:37.899Z,94512.44
2022-08-02T16:16:40.423Z,94500.56
2022-08-02T16:18:42.119Z,94515.63
2022-08-02T16:20:43.718Z,94510.28
2022-08-02T16:22:45.336Z,94516.22
2022-08-02T16:24:47.536Z,94517.56
2022-08-02T16:26:49.613Z,94518.34
2022-08-02T16:28:54.415Z,94520.53
2022-08-02T16:31:10.412Z,94527.22
2022-08-02T16:33:13.172Z,94524.28
2022-08-02T16:35:14.904Z,94523.75
2022-08-02T16:37:16.661Z,94527.25
2022-08-02T16:39:18.447Z,94531.53
2022-08-02T16:41:20.489Z,94524.81
2022-08-02T16:43:22.303Z,94532.88
2022-08-02T16:45:23.998Z,94536.38
2022-08-02T16:47:43.232Z,94533.94
2022-08-02T16:50:04.600Z,94546.25
2022-08-02T16:52:07.675Z,94541.94
2022-08-02T16:54:11.330Z,94545.44
2022-08-02T16:56:13.087Z,94540.31
2022-08-02T16:58:16.265Z,94540.34
2022-08-02T17:00:18.838Z,94545.44
2022-08-02T17:02:20.505Z,94548.41
2022-08-02T17:04:27.380Z,94546.75
2022-08-02T17:06:30.434Z,94551.31
2022-08-02T17:08:32.470Z,94552.41
2022-08-02T17:10:34.530Z,94556.19
2022-08-02T17:12:36.658Z,94560.75
2022-08-02T17:14:42.096Z,94554.88
2022-08-02T17:16:57.402Z,94562.13
2022-08-02T17:19:01.062Z,94561.31
2022-08-02T17:21:04.804Z,94558.16
2022-08-02T17:23:06.497Z,94557.06
2022-08-02T17:25:11.118Z,94566.44
2022-08-02T17:27:13.488Z,94561.88
2022-08-02T17:29:18.108Z,94566.41
2022-08-02T17:31:19.926Z,94567.69
2022-08-02T17:33:31.215Z,94566.06
2022-08-02T17:35:52.012Z,94566.84
2022-08-02T17:37:59.962Z,94573.81
2022-08-02T17:40:01.954Z,94569.72
2022-08-02T17:42:06.223Z,94571.84
2022-08-02T17:44:08.626Z,94582.00
2022-08-02T17:46:10.517Z,94579.53
2022-08-02T17:48:14.918Z,94579.19
2022-08-02T17:50:17.096Z,94584.81
2022-08-02T17:52:51.700Z,94582.13
2022-08-02T17:54:41.679Z,94585.84
2022-08-02T17:56:48.511Z,94580.22
2022-08-02T17:58:53.685Z,94592.84
2022-08-02T18:00:56.994Z,94590.41
2022-08-02T18:03:00.077Z,94592.84
2022-08-02T18:05:01.801Z,94591.50
2022-08-02T18:07:09.814Z,94593.38
2022-08-02T18:09:12.009Z,94604.13
2022-08-02T18:11:13.736Z,94603.03
2022-08-02T18:13:15.896Z,94603.03
2022-08-02T18:15:20.129Z,94609.25
2022-08-02T18:17:22.022Z,94610.31
2022-08-02T18:19:23.680Z,94609.81
2022-08-02T18:21:44.405Z,94618.91
2022-08-02T18:23:49.577Z,94622.66
2022-08-02T18:25:55.347Z,94625.06
2022-08-02T18:27:57.137Z,94617.78
2022-08-02T18:30:04.219Z,94619.94
2022-08-02T18:32:11.407Z,94622.63
2022-08-02T18:34:13.842Z,94624.28
2022-08-02T18:36:24.566Z,94626.97
2022-08-02T18:38:28.438Z,94634.47
2022-08-02T18:40:30.278Z,94631.78
2022-08-02T18:42:31.977Z,94630.19
2022-08-02T18:44:33.771Z,94630.19
2022-08-02T18:46:35.452Z,94634.22
2022-08-02T18:48:38.003Z,94631.53
2022-08-02T18:50:39.881Z,94639.53
2022-08-02T18:52:41.900Z,94641.66
2022-08-02T18:54:43.608Z,94638.16
2022-08-02T18:56:47.530Z,94641.66
2022-08-02T18:58:49.282Z,94647.84
2022-08-02T19:00:51.493Z,94647.03
2022-08-02T19:02:54.193Z,94651.59
2022-08-02T19:04:57.565Z,94648.34
2022-08-02T19:07:07.407Z,94655.84
2022-08-02T19:09:13.132Z,94652.59
2022-08-02T19:11:15.288Z,94654.16
2022-08-02T19:13:18.435Z,94654.66
2022-08-02T19:15:20.172Z,94660.75
2022-08-02T19:17:55.535Z,94647.56
2022-08-02T19:19:44.159Z,94649.13
2022-08-02T19:22:19.025Z,94657.44
2022-08-02T19:24:07.809Z,94661.47
2022-08-02T19:26:10.421Z,94655.78
2022-08-02T19:28:12.150Z,94653.88
2022-08-02T19:30:14.478Z,94653.78
2022-08-02T19:32:41.854Z,94661.28
2022-08-02T19:34:38.645Z,94657.75
2022-08-02T19:36:40.837Z,94661.13
2022-08-02T19:38:45.491Z,94665.38
2022-08-02T19:40:51.306Z,94666.47
2022-08-02T19:44:26.589Z,94660.50
2022-08-02T19:45:15.682Z,94657.25
2022-08-02T19:47:19.251Z,94661.19
2022-08-02T19:49:39.994Z,94661.94
2022-08-02T19:51:49.610Z,94654.41
2022-08-02T19:53:56.020Z,94661.91
2022-08-02T19:56:03.000Z,94664.25
2022-08-02T19:58:05.824Z,94665.81
2022-08-02T20:00:11.666Z,94658.25
2022-08-02T20:02:15.859Z,94660.34
2022-08-02T20:04:22.893Z,94659.78
2022-08-02T20:06:29.701Z,94669.63
2022-08-02T20:08:35.837Z,94663.13
2022-08-02T20:10:40.758Z,94670.13
2022-08-02T20:12:47.600Z,94656.19
2022-08-02T20:14:51.239Z,94651.38
2022-08-02T20:16:53.918Z,94656.97
2022-08-02T20:18:56.380Z,94648.94
2022-08-02T20:20:58.330Z,94650.81
2022-08-02T20:23:33.742Z,94656.19
2022-08-02T20:25:36.105Z,94652.94
2022-08-02T20:27:51.272Z,94656.66
2022-08-02T20:29:53.184Z,94656.59
2022-08-02T20:31:54.913Z,94660.84
2022-08-02T20:33:57.752Z,94661.81
2022-08-02T20:36:01.682Z,94658.25
2022-08-02T20:38:04.796Z,94668.16
2022-08-02T20:40:07.434Z,94664.13
2022-08-02T20:42:23.025Z,94664.34
2022-08-02T20:44:30.748Z,94670.19
2022-08-02T20:46:47.360Z,94664.81
2022-08-02T20:48:50.016Z,94666.13
2022-08-02T20:50:52.320Z,94671.16
2022-08-02T20:52:55.015Z,94662.91
2022-08-02T20:54:57.619Z,94662.06
2022-08-02T20:56:59.363Z,94665.56
2022-08-02T20:59:15.989Z,94669.53
2022-08-02T21:01:17.926Z,94667.59
2022-08-02T21:03:23.175Z,94676.13
2022-08-02T21:05:26.796Z,94677.44
2022-08-02T21:07:47.858Z,94682.22
2022-08-02T21:09:55.077Z,94684.91
2022-08-02T21:11:57.277Z,94687.81
2022-08-02T21:14:08.663Z,94677.34
2022-08-02T21:16:13.698Z,94677.34
2022-08-02T21:18:22.878Z,94679.44
2022-08-02T21:20:30.653Z,94675.63
2022-08-02T21:22:32.358Z,94686.03
2022-08-02T21:24:34.080Z,94681.50
2022-08-02T21:26:35.786Z,94680.59
2022-08-02T21:28:44.182Z,94694.22
2022-08-02T21:30:46.944Z,94693.09
2022-08-02T21:32:50.765Z,94689.28
2022-08-02T21:34:53.216Z,94693.25
2022-08-02T21:36:56.020Z,94686.03
2022-08-02T21:38:58.005Z,94696.97
2022-08-02T21:40:59.662Z,94687.56
2022-08-02T21:43:01.320Z,94693.25
2022-08-02T21:45:17.273Z,94694.34
2022-08-02T21:47:27.506Z,94691.00
2022-08-02T21:50:09.448Z,94695.75
2022-08-02T21:51:51.827Z,94693.03
2022-08-02T21:54:18.602Z,94689.59
2022-08-02T21:56:15.172Z,94682.06
2022-08-02T21:58:20.087Z,94682.38
2022-08-02T22:00:22.541Z,94687.03
2022-08-02T22:02:31.286Z,94689.56
2022-08-02T22:04:33.082Z,94691.78
2022-08-02T22:06:35.158Z,94686.78
2022-08-02T22:08:38.154Z,94687.09
2022-08-02T22:10:58.424Z,94691.78
2022-08-02T22:13:01.566Z,94686.28
2022-08-02T22:15:05.693Z,94691.38
2022-08-02T22:17:13.821Z,94685.78
2022-08-02T22:19:15.630Z,94689.03
2022-08-02T22:21:17.641Z,94688.56
2022-08-02T22:23:22.534Z,94679.72
2022-08-02T22:25:40.725Z,94685.88
2022-08-02T22:28:11.778Z,94682.97
2022-08-02T22:32:07.705Z,94683.09
2022-08-02T22:34:26.945Z,94678.78
2022-08-02T22:36:43.422Z,94679.56
2022-08-02T22:38:46.394Z,94667.06
2022-08-02T22:40:48.935Z,94679.00
2022-08-02T22:42:50.930Z,94675.75
2022-08-02T22:44:52.549Z,94677.84
2022-08-02T22:46:54.718Z,94676.25
2022-08-02T22:48:56.808Z,94675.44
2022-08-02T22:50:58.615Z,94678.91
2022-08-02T22:53:00.667Z,94672.50
2022-08-02T22:55:05.320Z,94671.97
2022-08-02T22:57:11.553Z,94675.44
2022-08-02T23:01:17.651Z,94673.00
2022-08-02T23:03:19.319Z,94674.53
2022-08-02T23:05:21.801Z,94680.44
2022-08-02T23:07:23.515Z,94672.34
2022-08-02T23:09:25.124Z,94679.53
2022-08-02T23:11:26.878Z,94679.44
2022-08-02T23:13:28.750Z,94675.16
2022-08-02T23:15:50.427Z,94670.03
2022-08-02T23:18:10.570Z,94676.69
2022-08-02T23:20:15.465Z,94681.19
2022-08-02T23:22:29.215Z,94682.03
2022-08-02T23:24:33.903Z,94677.97
2022-08-02T23:26:35.605Z,94680.66
2022-08-02T23:28:37.459Z,94680.06
2022-08-02T23:30:39.265Z,94680.06
2022-08-02T23:32:41.040Z,94677.41
2022-08-02T23:34:43.334Z,94676.56
2022-08-02T23:36:45.037Z,94683.53
2022-08-02T23:38:46.784Z,94681.09
2022-08-02T23:40:48.458Z,94682.59
2022-08-02T23:42:50.156Z,94679.34
2022-08-02T23:44:52.758Z,94680.06
2022-08-02T23:46:55.798Z,94675.19
2022-08-02T23:48:57.468Z,94679.47
2022-08-02T23:50:59.196Z,94680.28
2022-08-02T23:53:00.852Z,94678.31
2022-08-02T23:55:02.496Z,94682.38
2022-08-02T23:57:21.096Z,94678.09
2022-08-02T23:59:23.250Z,94679.25
